CheckWX is a tool to help pilots better visualize weather data.  It is not intended as a substitute for an official pre-flight weather briefing.

15:46:50 UTC

KCWF METAR
Chennault International Airport
Lake Charles, Louisiana, USA
Current

1 hour ago

KCWF 131446Z 24009KT 10SM BKN012 BKN019 31/26 A2994
Observed
Jul-13 @ 14:46 UTC
Wind
  • 240° at 9 KTS
Visibility
10 SM
Flight Rules
MVFR
Cloud Levels
  • Broken at 1,200' AGL
  • Broken at 1,900' AGL
Temperature
31°C / 88°F
Dewpoint
26°C / 79°F
Humidity
75%
Altimeter
29.94" Hg
Pressure
1013.92 hPa
Previous

2 hours ago

KCWF 131350Z 23010KT 7SM BKN013 BKN019 29/26 A2994
Observed
Jul-13 @ 13:50 UTC
Wind
  • 230° at 10 KTS
Visibility
7 SM
Flight Rules
MVFR
Cloud Levels
  • Broken at 1,300' AGL
  • Broken at 1,900' AGL
Temperature
29°C / 84°F
Dewpoint
26°C / 79°F
Humidity
84%
Altimeter
29.94" Hg
Pressure
1013.92 hPa
Previous

3 hours ago

KCWF 131255Z 24007KT 10SM BKN011 29/26 A2992
Observed
Jul-13 @ 12:55 UTC
Wind
  • 240° at 7 KTS
Visibility
10 SM
Flight Rules
MVFR
Cloud Levels
  • Broken at 1,100' AGL
Temperature
29°C / 84°F
Dewpoint
26°C / 79°F
Humidity
84%
Altimeter
29.92" Hg
Pressure
1013.22 hPa